createdAt,value
2018-07-17T00:00:33.584Z,0
2018-07-17T00:01:32.421Z,0
2018-07-17T00:02:32.718Z,0
2018-07-17T00:03:32.473Z,0
2018-07-17T00:04:33.030Z,0
2018-07-17T00:05:32.780Z,0
2018-07-17T00:06:32.813Z,0
2018-07-17T00:07:32.593Z,0
2018-07-17T00:08:33.134Z,0
2018-07-17T00:09:32.987Z,0
2018-07-17T00:10:32.917Z,0
2018-07-17T00:11:33.201Z,0
2018-07-17T00:12:32.976Z,0
2018-07-17T00:13:32.986Z,0
2018-07-17T00:14:33.026Z,0
2018-07-17T00:15:33.296Z,0
2018-07-17T00:16:33.079Z,0
2018-07-17T00:17:33.102Z,0
2018-07-17T00:18:33.142Z,0
2018-07-17T00:19:33.416Z,0
2018-07-17T00:20:33.163Z,0
2018-07-17T00:21:33.197Z,0
2018-07-17T00:22:32.974Z,0
2018-07-17T00:23:32.984Z,0
2018-07-17T00:24:32.759Z,0
2018-07-17T00:25:33.291Z,0
2018-07-17T00:26:33.350Z,0
2018-07-17T00:27:33.336Z,0
2018-07-17T00:28:33.366Z,0
2018-07-17T00:29:33.410Z,0
2018-07-17T00:30:33.677Z,0
2018-07-17T00:31:33.189Z,0
2018-07-17T00:32:33.737Z,0
2018-07-17T00:33:33.495Z,0
2018-07-17T00:34:33.262Z,0
2018-07-17T00:35:33.295Z,0
2018-07-17T00:36:33.568Z,0
2018-07-17T00:37:33.860Z,0
2018-07-17T00:38:33.890Z,0
2018-07-17T00:39:33.645Z,0
2018-07-17T00:40:33.945Z,0
2018-07-17T00:41:33.949Z,0
2018-07-17T00:42:33.985Z,0
2018-07-17T00:43:33.896Z,0
2018-07-17T00:44:33.247Z,0
2018-07-17T00:45:33.798Z,0
2018-07-17T00:46:33.565Z,0
2018-07-17T00:47:33.842Z,0
2018-07-17T00:48:33.881Z,0
2018-07-17T00:49:33.632Z,0
2018-07-17T00:50:33.938Z,0
2018-07-17T00:51:33.692Z,0
2018-07-17T00:52:33.974Z,0
2018-07-17T00:53:34.005Z,0
2018-07-17T00:54:34.037Z,0
2018-07-17T00:55:34.116Z,0
2018-07-17T00:56:34.333Z,0
2018-07-17T00:57:33.844Z,0
2018-07-17T00:58:34.123Z,0
2018-07-17T00:59:33.622Z,0
2018-07-17T01:00:33.908Z,0
2018-07-17T01:01:34.476Z,0
2018-07-17T01:02:33.957Z,0
2018-07-17T01:03:33.986Z,0
2018-07-17T01:04:34.267Z,0
2018-07-17T01:05:34.037Z,0
2018-07-17T01:06:34.321Z,0
2018-07-17T01:07:34.601Z,0
2018-07-17T01:08:34.120Z,0
2018-07-17T01:09:34.402Z,0
2018-07-17T01:10:34.416Z,0
2018-07-17T01:11:34.446Z,0
2018-07-17T01:12:34.492Z,0
2018-07-17T01:13:34.750Z,0
2018-07-17T01:14:34.525Z,0
2018-07-17T01:15:34.810Z,0
2018-07-17T01:16:34.574Z,0
2018-07-17T01:17:34.069Z,0
2018-07-17T01:18:34.090Z,0
2018-07-17T01:19:34.922Z,0
2018-07-17T01:20:34.927Z,0
2018-07-17T01:21:34.946Z,0
2018-07-17T01:22:34.973Z,0
2018-07-17T01:23:34.738Z,0
2018-07-17T01:24:34.764Z,0
2018-07-17T01:25:34.531Z,0
2018-07-17T01:26:35.074Z,0
2018-07-17T01:27:35.106Z,0
2018-07-17T01:28:34.607Z,0
2018-07-17T01:29:35.153Z,0
2018-07-17T01:30:34.392Z,0
2018-07-17T01:31:34.939Z,0
2018-07-17T01:32:35.230Z,0
2018-07-17T01:33:35.246Z,0
2018-07-17T01:34:35.006Z,0
2018-07-17T01:35:35.041Z,0
2018-07-17T01:36:35.065Z,0
2018-07-17T01:37:35.348Z,0
2018-07-17T01:38:35.527Z,0
2018-07-17T01:39:34.875Z,0
2018-07-17T01:40:35.418Z,0
2018-07-17T01:41:35.448Z,0
2018-07-17T01:42:35.201Z,0
2018-07-17T01:43:35.491Z,0
2018-07-17T01:44:35.524Z,0
2018-07-17T01:45:35.544Z,0
2018-07-17T01:46:35.568Z,0
2018-07-17T01:47:35.321Z,0
2018-07-17T01:48:35.607Z,0
2018-07-17T01:49:35.424Z,0
2018-07-17T01:50:35.658Z,0
2018-07-17T01:51:35.425Z,0
2018-07-17T01:52:35.195Z,0
2018-07-17T01:53:35.468Z,0
2018-07-17T01:54:35.266Z,0
2018-07-17T01:55:35.801Z,0
2018-07-17T01:56:35.957Z,0
2018-07-17T01:57:36.189Z,0
2018-07-17T01:58:35.588Z,0
2018-07-17T01:59:35.868Z,0
2018-07-17T02:00:35.119Z,0
2018-07-17T02:01:35.409Z,0
2018-07-17T02:02:35.687Z,0
2018-07-17T02:03:35.974Z,0
2018-07-17T02:04:35.991Z,0
2018-07-17T02:05:35.502Z,0
2018-07-17T02:06:36.039Z,0
2018-07-17T02:07:35.814Z,0
2018-07-17T02:08:35.827Z,0
2018-07-17T02:09:35.859Z,0
2018-07-17T02:10:35.881Z,0
2018-07-17T02:11:36.225Z,0
2018-07-17T02:12:35.929Z,0
2018-07-17T02:13:36.217Z,0
2018-07-17T02:14:36.241Z,0
2018-07-17T02:15:36.256Z,0
2018-07-17T02:16:36.021Z,0
2018-07-17T02:17:36.051Z,0
2018-07-17T02:18:36.361Z,0
2018-07-17T02:19:35.840Z,0
2018-07-17T02:20:35.867Z,0
2018-07-17T02:21:36.410Z,0
2018-07-17T02:22:35.651Z,0
2018-07-17T02:23:36.189Z,0
2018-07-17T02:24:36.480Z,0
2018-07-17T02:25:36.539Z,0
2018-07-17T02:26:36.525Z,0
2018-07-17T02:27:36.558Z,0
2018-07-17T02:28:36.742Z,0
2018-07-17T02:29:36.598Z,0
2018-07-17T02:30:36.532Z,0
2018-07-17T02:31:36.389Z,0
2018-07-17T02:32:36.680Z,0
2018-07-17T02:33:36.916Z,0
2018-07-17T02:34:36.725Z,0
2018-07-17T02:35:36.222Z,0
2018-07-17T02:36:36.783Z,0
2018-07-17T02:37:36.288Z,0
2018-07-17T02:38:36.294Z,0
2018-07-17T02:39:36.612Z,0
2018-07-17T02:40:36.885Z,0
2018-07-17T02:41:36.883Z,0
2018-07-17T02:42:37.376Z,0
2018-07-17T02:43:36.670Z,0
2018-07-17T02:44:36.993Z,0
2018-07-17T02:45:36.348Z,0
2018-07-17T02:46:37.017Z,0
2018-07-17T02:47:36.244Z,0
2018-07-17T02:48:36.546Z,0
2018-07-17T02:49:36.553Z,0
2018-07-17T02:50:36.844Z,0
2018-07-17T02:51:36.603Z,0
2018-07-17T02:52:36.630Z,0
2018-07-17T02:53:36.645Z,0
2018-07-17T02:54:36.943Z,0
2018-07-17T02:55:36.964Z,0
2018-07-17T02:56:36.715Z,0
2018-07-17T02:57:36.759Z,0
2018-07-17T02:58:36.802Z,0
2018-07-17T02:59:36.786Z,0
2018-07-17T03:00:36.814Z,0
2018-07-17T03:01:37.094Z,0
2018-07-17T03:02:36.863Z,0
2018-07-17T03:03:37.411Z,0
2018-07-17T03:04:37.174Z,0
2018-07-17T03:05:37.193Z,0
2018-07-17T03:06:37.226Z,0
2018-07-17T03:07:37.509Z,0
2018-07-17T03:08:36.818Z,0
2018-07-17T03:09:36.771Z,0
2018-07-17T03:10:37.571Z,0
2018-07-17T03:11:37.064Z,0
2018-07-17T03:12:37.353Z,0
2018-07-17T03:13:37.641Z,0
2018-07-17T03:14:37.667Z,0
2018-07-17T03:15:38.038Z,0
2018-07-17T03:16:37.701Z,0
2018-07-17T03:17:37.475Z,0
2018-07-17T03:18:37.497Z,0
2018-07-17T03:19:37.799Z,0
2018-07-17T03:20:37.566Z,0
2018-07-17T03:21:37.839Z,0
2018-07-17T03:22:37.850Z,0
2018-07-17T03:23:37.616Z,0
2018-07-17T03:24:38.198Z,0
2018-07-17T03:25:37.925Z,0
2018-07-17T03:26:37.421Z,0
2018-07-17T03:27:37.719Z,0
2018-07-17T03:28:37.729Z,0
2018-07-17T03:29:37.756Z,0
2018-07-17T03:30:38.046Z,0
2018-07-17T03:31:38.055Z,0
2018-07-17T03:32:37.566Z,0
2018-07-17T03:33:38.104Z,0
2018-07-17T03:34:37.857Z,0
2018-07-17T03:35:37.890Z,0
2018-07-17T03:36:38.607Z,0
2018-07-17T03:37:37.930Z,0
2018-07-17T03:38:37.961Z,0
2018-07-17T03:39:37.986Z,0
2018-07-17T03:40:37.739Z,0
2018-07-17T03:41:38.286Z,0
2018-07-17T03:42:37.791Z,0
2018-07-17T03:43:38.334Z,0
2018-07-17T03:44:38.089Z,0
2018-07-17T03:45:38.120Z,0
2018-07-17T03:46:38.407Z,0
2018-07-17T03:47:38.161Z,0
2018-07-17T03:48:38.449Z,0
2018-07-17T03:49:38.218Z,0
2018-07-17T03:50:37.968Z,0
2018-07-17T03:51:37.740Z,0
2018-07-17T03:52:38.552Z,0
2018-07-17T03:53:38.562Z,0
2018-07-17T03:54:38.332Z,0
2018-07-17T03:55:38.619Z,0
2018-07-17T03:56:38.430Z,0
2018-07-17T03:57:38.137Z,0
2018-07-17T03:58:38.681Z,0
2018-07-17T03:59:38.729Z,0
2018-07-17T04:00:38.477Z,0
2018-07-17T04:01:38.485Z,0
2018-07-17T04:02:38.796Z,0
2018-07-17T04:03:38.535Z,0
2018-07-17T04:04:38.563Z,0
2018-07-17T04:05:38.841Z,0
2018-07-17T04:06:38.604Z,0
2018-07-17T04:07:38.365Z,0
2018-07-17T04:08:38.825Z,0
2018-07-17T04:09:38.681Z,0
2018-07-17T04:10:38.966Z,0
2018-07-17T04:11:38.454Z,0
2018-07-17T04:12:39.008Z,0
2018-07-17T04:13:38.968Z,0
2018-07-17T04:14:39.049Z,0
2018-07-17T04:15:39.073Z,0
2018-07-17T04:16:38.844Z,0
2018-07-17T04:17:39.126Z,0
2018-07-17T04:18:38.872Z,0
2018-07-17T04:19:38.897Z,0
2018-07-17T04:20:39.192Z,0
2018-07-17T04:21:38.928Z,0
2018-07-17T04:22:38.997Z,0
2018-07-17T04:23:38.734Z,0
2018-07-17T04:24:38.497Z,0
2018-07-17T04:25:39.044Z,0
2018-07-17T04:26:39.059Z,0
2018-07-17T04:27:39.087Z,0
2018-07-17T04:28:38.864Z,0
2018-07-17T04:29:39.397Z,0
2018-07-17T04:30:39.419Z,0
2018-07-17T04:31:39.744Z,0
2018-07-17T04:32:38.678Z,0
2018-07-17T04:33:39.220Z,0
2018-07-17T04:34:38.981Z,0
2018-07-17T04:35:39.270Z,0
2018-07-17T04:36:40.152Z,0
2018-07-17T04:37:39.574Z,0
2018-07-17T04:38:39.235Z,0
2018-07-17T04:39:39.106Z,5
2018-07-17T04:40:39.402Z,5
2018-07-17T04:41:39.667Z,5
2018-07-17T04:42:39.691Z,5
2018-07-17T04:43:39.716Z,5
2018-07-17T04:44:40.079Z,5
2018-07-17T04:45:39.788Z,5
2018-07-17T04:46:39.266Z,5
2018-07-17T04:47:39.565Z,5
2018-07-17T04:48:39.313Z,5
2018-07-17T04:49:39.869Z,5
2018-07-17T04:50:39.091Z,5
2018-07-17T04:51:39.121Z,5
2018-07-17T04:52:39.922Z,5
2018-07-17T04:53:39.935Z,5
2018-07-17T04:54:39.719Z,5
2018-07-17T04:55:39.468Z,5
2018-07-17T04:56:40.009Z,5
2018-07-17T04:57:39.773Z,5
2018-07-17T04:58:39.795Z,5
2018-07-17T04:59:40.071Z,5
2018-07-17T05:00:40.105Z,5
2018-07-17T05:01:40.643Z,5
2018-07-17T05:02:39.885Z,5
2018-07-17T05:03:40.178Z,5
2018-07-17T05:04:39.671Z,5
2018-07-17T05:05:39.952Z,5
2018-07-17T05:06:39.972Z,5
2018-07-17T05:07:40.009Z,5
2018-07-17T05:08:39.756Z,5
2018-07-17T05:09:40.315Z,5
2018-07-17T05:10:40.326Z,5
2018-07-17T05:11:40.350Z,5
2018-07-17T05:12:40.435Z,5
2018-07-17T05:13:40.131Z,5
2018-07-17T05:14:40.153Z,5
2018-07-17T05:15:40.180Z,5
2018-07-17T05:16:40.172Z,5
2018-07-17T05:17:40.506Z,5
2018-07-17T05:18:40.515Z,5
2018-07-17T05:19:40.526Z,5
2018-07-17T05:20:40.561Z,5
2018-07-17T05:21:40.361Z,5
2018-07-17T05:22:40.338Z,5
2018-07-17T05:23:40.362Z,5
2018-07-17T05:24:40.389Z,5
2018-07-17T05:25:40.667Z,5
2018-07-17T05:26:40.688Z,5
2018-07-17T05:27:40.709Z,5
2018-07-17T05:28:40.726Z,5
2018-07-17T05:29:40.500Z,5
2018-07-17T05:30:40.252Z,5
2018-07-17T05:31:40.599Z,5
2018-07-17T05:32:41.010Z,5
2018-07-17T05:33:40.596Z,5
2018-07-17T05:34:40.362Z,5
2018-07-17T05:35:40.944Z,5
2018-07-17T05:36:40.648Z,5
2018-07-17T05:37:40.937Z,5
2018-07-17T05:38:40.749Z,5
2018-07-17T05:39:40.720Z,5
2018-07-17T05:40:40.748Z,5
2018-07-17T05:41:40.814Z,5
2018-07-17T05:42:41.123Z,5
2018-07-17T05:43:40.545Z,5
2018-07-17T05:44:41.102Z,5
2018-07-17T05:45:41.110Z,5
2018-07-17T05:46:41.257Z,5
2018-07-17T05:47:40.901Z,5
2018-07-17T05:48:41.189Z,5
2018-07-17T05:49:41.210Z,5
2018-07-17T05:50:41.296Z,5
2018-07-17T05:51:41.004Z,5
2018-07-17T05:52:41.279Z,5
2018-07-17T05:53:41.101Z,5
2018-07-17T05:54:41.072Z,5
2018-07-17T05:55:41.085Z,5
2018-07-17T05:56:40.599Z,5
2018-07-17T05:57:41.140Z,5
2018-07-17T05:58:41.147Z,5
2018-07-17T05:59:41.440Z,5
2018-07-17T06:00:41.460Z,5
2018-07-17T06:01:41.220Z,5
2018-07-17T06:02:41.245Z,5
2018-07-17T06:03:41.272Z,5
2018-07-17T06:04:41.291Z,5
2018-07-17T06:05:41.311Z,5
2018-07-17T06:06:40.817Z,5
2018-07-17T06:07:41.360Z,5
2018-07-17T06:08:40.886Z,5
2018-07-17T06:09:41.403Z,5
2018-07-17T06:10:41.422Z,5
2018-07-17T06:11:41.447Z,5
2018-07-17T06:12:41.210Z,5
2018-07-17T06:13:41.510Z,5
2018-07-17T06:14:41.525Z,5
2018-07-17T06:15:41.536Z,5
2018-07-17T06:16:41.823Z,5
2018-07-17T06:17:41.852Z,5
2018-07-17T06:18:41.609Z,5
2018-07-17T06:19:41.629Z,5
2018-07-17T06:20:41.388Z,5
2018-07-17T06:21:41.955Z,5
2018-07-17T06:22:41.704Z,5
2018-07-17T06:23:42.052Z,5
2018-07-17T06:24:41.757Z,5
2018-07-17T06:25:42.030Z,5
2018-07-17T06:26:41.793Z,5
2018-07-17T06:27:42.121Z,5
2018-07-17T06:28:41.842Z,5
2018-07-17T06:29:42.113Z,5
2018-07-17T06:30:42.179Z,5
2018-07-17T06:31:42.175Z,5
2018-07-17T06:32:41.678Z,5
2018-07-17T06:33:41.958Z,5
2018-07-17T06:34:42.261Z,5
2018-07-17T06:35:42.310Z,5
2018-07-17T06:36:42.012Z,5
2018-07-17T06:37:42.058Z,5
2018-07-17T06:38:42.371Z,5
2018-07-17T06:39:42.090Z,5
2018-07-17T06:40:42.116Z,5
2018-07-17T06:41:42.396Z,5
2018-07-17T06:42:42.261Z,5
2018-07-17T06:43:42.435Z,5
2018-07-17T06:44:42.704Z,5
2018-07-17T06:45:42.814Z,5
2018-07-17T06:46:42.243Z,5
2018-07-17T06:47:42.267Z,5
2018-07-17T06:48:42.295Z,5
2018-07-17T06:49:42.055Z,5
2018-07-17T06:50:43.477Z,5
2018-07-17T06:51:42.368Z,5
2018-07-17T06:52:42.378Z,5
2018-07-17T06:53:42.149Z,5
2018-07-17T06:54:42.686Z,5
2018-07-17T06:55:42.711Z,5
2018-07-17T06:56:42.470Z,5
2018-07-17T06:57:42.766Z,5
2018-07-17T06:58:42.522Z,5
2018-07-17T06:59:42.552Z,5
2018-07-17T07:00:42.825Z,5
2018-07-17T07:01:42.844Z,5
2018-07-17T07:02:42.617Z,5
2018-07-17T07:03:42.640Z,5
2018-07-17T07:04:42.400Z,5
2018-07-17T07:05:42.941Z,5
2018-07-17T07:06:42.186Z,5
2018-07-17T07:07:42.730Z,5
2018-07-17T07:08:42.499Z,5
2018-07-17T07:09:42.509Z,5
2018-07-17T07:10:42.792Z,5
2018-07-17T07:11:42.819Z,5
2018-07-17T07:12:43.097Z,5
2018-07-17T07:13:42.861Z,10
2018-07-17T07:14:42.626Z,10
2018-07-17T07:15:42.924Z,10
2018-07-17T07:16:42.675Z,10
2018-07-17T07:17:43.216Z,10
2018-07-17T07:18:43.024Z,10
2018-07-17T07:19:43.277Z,10
2018-07-17T07:20:43.290Z,10
2018-07-17T07:21:43.311Z,10
2018-07-17T07:22:43.064Z,10
2018-07-17T07:23:42.571Z,10
2018-07-17T07:24:42.858Z,10
2018-07-17T07:25:43.135Z,10
2018-07-17T07:26:42.642Z,10
2018-07-17T07:27:43.194Z,10
2018-07-17T07:28:43.216Z,10
2018-07-17T07:29:43.244Z,10
2018-07-17T07:30:43.000Z,10
2018-07-17T07:31:43.548Z,10
2018-07-17T07:32:43.567Z,10
2018-07-17T07:33:43.328Z,10
2018-07-17T07:34:43.090Z,10
2018-07-17T07:35:43.636Z,10
2018-07-17T07:36:43.390Z,10
2018-07-17T07:37:43.156Z,10
2018-07-17T07:38:42.933Z,10
2018-07-17T07:39:43.214Z,10
2018-07-17T07:40:43.481Z,10
2018-07-17T07:41:43.777Z,10
2018-07-17T07:42:43.557Z,10
2018-07-17T07:43:43.560Z,10
2018-07-17T07:44:43.579Z,10
2018-07-17T07:45:43.866Z,10
2018-07-17T07:46:43.903Z,10
2018-07-17T07:47:43.653Z,10
2018-07-17T07:48:43.672Z,10
2018-07-17T07:49:43.976Z,10
2018-07-17T07:50:43.724Z,10
2018-07-17T07:51:44.005Z,10
2018-07-17T07:52:44.045Z,10
2018-07-17T07:53:43.536Z,10
2018-07-17T07:54:44.074Z,10
2018-07-17T07:55:43.734Z,10
2018-07-17T07:56:43.876Z,10
2018-07-17T07:57:43.903Z,10
2018-07-17T07:58:43.908Z,10
2018-07-17T07:59:43.933Z,10
2018-07-17T08:00:44.220Z,10
2018-07-17T08:01:43.985Z,10
2018-07-17T08:02:44.265Z,10
2018-07-17T08:03:44.048Z,10
2018-07-17T08:04:44.134Z,10
2018-07-17T08:05:44.336Z,10
2018-07-17T08:06:44.415Z,10
2018-07-17T08:07:44.125Z,10
2018-07-17T08:08:44.143Z,10
2018-07-17T08:09:44.447Z,10
2018-07-17T08:10:43.934Z,10
2018-07-17T08:11:44.393Z,10
2018-07-17T08:12:44.243Z,10
2018-07-17T08:13:44.274Z,10
2018-07-17T08:14:44.570Z,10
2018-07-17T08:15:44.059Z,10
2018-07-17T08:16:44.603Z,10
2018-07-17T08:17:44.105Z,15
2018-07-17T08:18:44.647Z,15
2018-07-17T08:19:44.416Z,15
2018-07-17T08:20:44.707Z,15
2018-07-17T08:21:44.210Z,15
2018-07-17T08:22:44.759Z,15
2018-07-17T08:23:44.531Z,15
2018-07-17T08:24:44.273Z,15
2018-07-17T08:25:44.565Z,20
2018-07-17T08:26:44.860Z,20
2018-07-17T08:27:44.622Z,20
2018-07-17T08:28:44.640Z,20
2018-07-17T08:29:45.343Z,20
2018-07-17T08:30:44.942Z,20
2018-07-17T08:31:44.454Z,20
2018-07-17T08:32:44.997Z,20
2018-07-17T08:33:44.494Z,20
2018-07-17T08:34:45.043Z,20
2018-07-17T08:35:44.988Z,20
2018-07-17T08:36:44.578Z,20
2018-07-17T08:37:45.142Z,20
2018-07-17T08:38:44.372Z,20
2018-07-17T08:39:44.916Z,20
2018-07-17T08:40:44.410Z,20
2018-07-17T08:41:44.964Z,20
2018-07-17T08:42:44.986Z,20
2018-07-17T08:43:45.567Z,20
2018-07-17T08:44:45.042Z,20
2018-07-17T08:45:45.072Z,20
2018-07-17T08:46:45.085Z,20
2018-07-17T08:47:45.115Z,20
2018-07-17T08:48:44.874Z,20
2018-07-17T08:49:45.432Z,20
2018-07-17T08:50:45.454Z,20
2018-07-17T08:51:45.214Z,20
2018-07-17T08:52:45.496Z,20
2018-07-17T08:53:45.267Z,20
2018-07-17T08:54:46.106Z,20
2018-07-17T08:55:45.060Z,20
2018-07-17T08:56:45.600Z,20
2018-07-17T08:57:45.378Z,15
2018-07-17T08:58:45.421Z,20
2018-07-17T08:59:45.682Z,20
2018-07-17T09:00:45.445Z,20
2018-07-17T09:01:45.745Z,20
2018-07-17T09:02:45.490Z,20
2018-07-17T09:03:45.786Z,20
2018-07-17T09:04:45.295Z,20
2018-07-17T09:05:45.889Z,20
2018-07-17T09:06:45.602Z,20
2018-07-17T09:07:45.625Z,20
2018-07-17T09:08:45.654Z,20
2018-07-17T09:09:45.948Z,20
2018-07-17T09:10:45.966Z,20
2018-07-17T09:11:45.470Z,25
2018-07-17T09:12:46.013Z,30
2018-07-17T09:13:46.041Z,30
2018-07-17T09:14:45.809Z,35
2018-07-17T09:15:45.835Z,30
2018-07-17T09:16:46.127Z,25
2018-07-17T09:17:46.139Z,20
2018-07-17T09:18:46.179Z,20
2018-07-17T09:19:46.209Z,20
2018-07-17T09:20:45.709Z,25
2018-07-17T09:21:46.475Z,25
2018-07-17T09:22:46.295Z,25
2018-07-17T09:23:46.058Z,20
2018-07-17T09:24:46.077Z,20
2018-07-17T09:25:46.101Z,15
2018-07-17T09:26:46.122Z,25
2018-07-17T09:27:46.421Z,25
2018-07-17T09:28:45.922Z,20
2018-07-17T09:29:45.958Z,20
2018-07-17T09:30:46.498Z,25
2018-07-17T09:31:46.523Z,25
2018-07-17T09:32:46.086Z,25
2018-07-17T09:33:46.352Z,30
2018-07-17T09:34:46.087Z,30
2018-07-17T09:35:46.629Z,25
2018-07-17T09:36:46.401Z,25
2018-07-17T09:37:46.428Z,25
2018-07-17T09:38:46.458Z,25
2018-07-17T09:39:46.493Z,25
2018-07-17T09:40:46.514Z,30
2018-07-17T09:41:46.805Z,30
2018-07-17T09:42:47.363Z,30
2018-07-17T09:43:46.849Z,35
2018-07-17T09:44:46.369Z,35
2018-07-17T09:45:46.662Z,30
2018-07-17T09:46:46.676Z,30
2018-07-17T09:47:46.961Z,30
2018-07-17T09:48:46.730Z,30
2018-07-17T09:49:46.246Z,35
2018-07-17T09:50:46.529Z,35
2018-07-17T09:51:46.549Z,35
2018-07-17T09:52:46.844Z,35
2018-07-17T09:53:47.143Z,35
2018-07-17T09:54:46.905Z,35
2018-07-17T09:55:47.190Z,35
2018-07-17T09:56:46.959Z,40
2018-07-17T09:57:46.984Z,35
2018-07-17T09:58:47.014Z,35
2018-07-17T09:59:47.039Z,35
2018-07-17T10:00:47.329Z,25
2018-07-17T10:01:46.832Z,35
2018-07-17T10:02:47.134Z,35
2018-07-17T10:03:47.421Z,35
2018-07-17T10:04:47.045Z,35
2018-07-17T10:05:47.223Z,35
2018-07-17T10:06:46.988Z,35
2018-07-17T10:07:47.274Z,35
2018-07-17T10:08:47.553Z,35
2018-07-17T10:09:47.342Z,35
2018-07-17T10:10:47.356Z,40
2018-07-17T10:11:47.419Z,40
2018-07-17T10:12:47.414Z,35
2018-07-17T10:13:47.718Z,30
2018-07-17T10:14:47.352Z,25
2018-07-17T10:15:47.764Z,20
2018-07-17T10:16:47.792Z,25
2018-07-17T10:17:47.560Z,30
2018-07-17T10:18:47.854Z,30
2018-07-17T10:19:47.946Z,30
2018-07-17T10:20:47.397Z,30
2018-07-17T10:21:47.950Z,30
2018-07-17T10:22:47.982Z,30
2018-07-17T10:23:47.998Z,30
2018-07-17T10:24:47.515Z,35
2018-07-17T10:25:48.061Z,35
2018-07-17T10:26:48.441Z,35
2018-07-17T10:27:48.126Z,35
2018-07-17T10:28:48.149Z,35
2018-07-17T10:29:48.195Z,35
2018-07-17T10:30:47.948Z,35
2018-07-17T10:31:48.249Z,35
2018-07-17T10:32:48.273Z,35
2018-07-17T10:33:47.795Z,30
2018-07-17T10:34:48.324Z,30
2018-07-17T10:35:48.368Z,30
2018-07-17T10:36:48.134Z,25
2018-07-17T10:37:48.157Z,30
2018-07-17T10:38:48.661Z,35
2018-07-17T10:39:47.703Z,35
2018-07-17T10:40:47.990Z,35
2018-07-17T10:41:48.019Z,35
2018-07-17T10:42:48.772Z,35
2018-07-17T10:43:48.088Z,45
2018-07-17T10:44:48.369Z,50
2018-07-17T10:45:48.140Z,50
2018-07-17T10:46:48.695Z,55
2018-07-17T10:47:49.090Z,35
2018-07-17T10:48:48.753Z,30
2018-07-17T10:49:48.790Z,45
2018-07-17T10:50:48.824Z,45
2018-07-17T10:51:48.587Z,45
2018-07-17T10:52:48.622Z,25
2018-07-17T10:53:48.650Z,45
2018-07-17T10:54:48.685Z,45
2018-07-17T10:55:48.715Z,40
2018-07-17T10:56:48.499Z,40
2018-07-17T10:57:48.518Z,40
2018-07-17T10:58:49.145Z,45
2018-07-17T10:59:49.093Z,45
2018-07-17T11:00:48.885Z,45
2018-07-17T11:01:48.642Z,45
2018-07-17T11:02:49.192Z,45
2018-07-17T11:03:49.222Z,45
2018-07-17T11:04:49.272Z,45
2018-07-17T11:05:49.027Z,45
2018-07-17T11:06:48.820Z,45
2018-07-17T11:07:49.348Z,45
2018-07-17T11:08:48.910Z,45
2018-07-17T11:09:49.415Z,45
2018-07-17T11:10:49.182Z,45
2018-07-17T11:11:49.245Z,45
2018-07-17T11:12:49.255Z,45
2018-07-17T11:13:49.542Z,45
2018-07-17T11:14:49.311Z,45
2018-07-17T11:15:49.599Z,45
2018-07-17T11:16:49.111Z,45
2018-07-17T11:17:49.669Z,45
2018-07-17T11:18:49.182Z,45
2018-07-17T11:19:49.470Z,45
2018-07-17T11:20:49.772Z,45
2018-07-17T11:21:49.800Z,45
2018-07-17T11:22:49.830Z,45
2018-07-17T11:23:49.596Z,45
2018-07-17T11:24:49.638Z,45
2018-07-17T11:25:49.926Z,45
2018-07-17T11:26:49.702Z,45
2018-07-17T11:27:49.209Z,45
2018-07-17T11:28:49.760Z,50
2018-07-17T11:29:50.062Z,50
2018-07-17T11:30:49.823Z,50
2018-07-17T11:31:49.612Z,50
2018-07-17T11:32:49.930Z,55
2018-07-17T11:33:49.930Z,55
2018-07-17T11:34:49.441Z,55
2018-07-17T11:35:49.730Z,55
2018-07-17T11:36:50.283Z,50
2018-07-17T11:37:49.797Z,50
2018-07-17T11:38:50.548Z,50
2018-07-17T11:39:50.393Z,50
2018-07-17T11:40:50.164Z,50
2018-07-17T11:41:50.196Z,50
2018-07-17T11:42:50.489Z,50
2018-07-17T11:43:50.262Z,50
2018-07-17T11:44:50.295Z,55
2018-07-17T11:45:50.337Z,55
2018-07-17T11:46:50.359Z,55
2018-07-17T11:47:50.922Z,55
2018-07-17T11:48:50.426Z,55
2018-07-17T11:49:50.725Z,55
2018-07-17T11:50:50.751Z,55
2018-07-17T11:51:50.541Z,55
2018-07-17T11:52:50.814Z,55
2018-07-17T11:53:50.852Z,60
2018-07-17T11:54:50.364Z,60
2018-07-17T11:55:50.403Z,60
2018-07-17T11:56:50.691Z,60
2018-07-17T11:57:50.995Z,60
2018-07-17T11:58:50.591Z,60
2018-07-17T11:59:50.269Z,60
2018-07-17T12:00:50.846Z,60
2018-07-17T12:01:50.611Z,65
2018-07-17T12:02:50.892Z,60
2018-07-17T12:03:51.190Z,60
2018-07-17T12:04:51.228Z,60
2018-07-17T12:05:51.612Z,30
2018-07-17T12:06:51.031Z,60
2018-07-17T12:07:51.079Z,60
2018-07-17T12:08:51.367Z,60
2018-07-17T12:09:50.870Z,60
2018-07-17T12:10:51.443Z,65
2018-07-17T12:11:51.202Z,65
2018-07-17T12:12:51.784Z,65
2018-07-17T12:13:51.541Z,65
2018-07-17T12:14:51.562Z,65
2018-07-17T12:15:51.615Z,65
2018-07-17T12:16:51.120Z,65
2018-07-17T12:17:51.667Z,65
2018-07-17T12:18:51.187Z,65
2018-07-17T12:19:52.019Z,65
2018-07-17T12:20:51.774Z,65
2018-07-17T12:21:51.550Z,65
2018-07-17T12:22:51.581Z,65
2018-07-17T12:23:51.873Z,65
2018-07-17T12:24:51.915Z,65
2018-07-17T12:25:51.953Z,65
2018-07-17T12:26:51.716Z,70
2018-07-17T12:27:51.776Z,70
2018-07-17T12:28:51.588Z,70
2018-07-17T12:29:51.303Z,70
2018-07-17T12:30:52.122Z,75
2018-07-17T12:31:51.640Z,75
2018-07-17T12:32:51.679Z,75
2018-07-17T12:33:52.234Z,75
2018-07-17T12:34:51.874Z,75
2018-07-17T12:35:52.052Z,75
2018-07-17T12:36:52.334Z,70
2018-07-17T12:37:52.366Z,70
2018-07-17T12:38:51.625Z,70
2018-07-17T12:39:52.440Z,70
2018-07-17T12:40:52.477Z,70
2018-07-17T12:41:51.995Z,70
2018-07-17T12:42:52.546Z,70
2018-07-17T12:43:52.591Z,70
2018-07-17T12:44:52.614Z,70
2018-07-17T12:45:52.402Z,70
2018-07-17T12:46:52.687Z,70
2018-07-17T12:47:52.465Z,70
2018-07-17T12:48:52.762Z,70
2018-07-17T12:49:52.342Z,70
2018-07-17T12:50:52.041Z,75
2018-07-17T12:51:52.870Z,75
2018-07-17T12:52:52.652Z,80
2018-07-17T12:53:52.936Z,75
2018-07-17T12:54:52.967Z,75
2018-07-17T12:55:53.016Z,75
2018-07-17T12:56:52.787Z,70
2018-07-17T12:57:52.829Z,75
2018-07-17T12:58:52.860Z,80
2018-07-17T12:59:52.890Z,60
2018-07-17T13:00:52.675Z,80
2018-07-17T13:01:52.967Z,80
2018-07-17T13:02:52.853Z,85
2018-07-17T13:03:53.046Z,90
2018-07-17T13:04:52.812Z,90
2018-07-17T13:05:53.371Z,40
2018-07-17T13:06:53.415Z,75
2018-07-17T13:07:52.678Z,70
2018-07-17T13:08:53.215Z,70
2018-07-17T13:09:53.295Z,70
2018-07-17T13:10:53.036Z,70
2018-07-17T13:11:53.585Z,70
2018-07-17T13:12:53.650Z,75
2018-07-17T13:13:53.676Z,75
2018-07-17T13:14:53.738Z,75
2018-07-17T13:15:53.478Z,75
2018-07-17T13:16:53.512Z,75
2018-07-17T13:17:53.988Z,75
2018-07-17T13:18:53.339Z,75
2018-07-17T13:19:53.356Z,75
2018-07-17T13:20:53.922Z,75
2018-07-17T13:21:53.946Z,75
2018-07-17T13:22:53.984Z,80
2018-07-17T13:23:54.192Z,80
2018-07-17T13:24:54.069Z,80
2018-07-17T13:25:53.321Z,80
2018-07-17T13:26:54.138Z,75
2018-07-17T13:27:53.393Z,30
2018-07-17T13:28:54.210Z,80
2018-07-17T13:29:53.734Z,80
2018-07-17T13:30:54.022Z,80
2018-07-17T13:31:54.370Z,80
2018-07-17T13:32:54.103Z,80
2018-07-17T13:33:54.132Z,80
2018-07-17T13:34:54.468Z,80
2018-07-17T13:35:54.470Z,85
2018-07-17T13:36:54.252Z,90
2018-07-17T13:37:54.549Z,90
2018-07-17T13:38:54.361Z,95
2018-07-17T13:39:54.354Z,80
2018-07-17T13:40:54.647Z,75
2018-07-17T13:41:54.428Z,45
2018-07-17T13:42:54.732Z,90
2018-07-17T13:43:54.903Z,40
2018-07-17T13:44:55.341Z,40
2018-07-17T13:45:54.866Z,95
2018-07-17T13:46:54.614Z,95
2018-07-17T13:47:54.397Z,90
2018-07-17T13:48:54.956Z,95
2018-07-17T13:49:54.991Z,95
2018-07-17T13:50:54.511Z,95
2018-07-17T13:51:54.809Z,95
2018-07-17T13:52:55.056Z,95
2018-07-17T13:53:55.141Z,90
2018-07-17T13:54:54.935Z,90
2018-07-17T13:55:54.954Z,90
2018-07-17T13:56:55.398Z,90
2018-07-17T13:57:55.031Z,95
2018-07-17T13:58:55.333Z,90
2018-07-17T13:59:55.163Z,90
2018-07-17T14:00:55.403Z,90
2018-07-17T14:01:55.445Z,90
2018-07-17T14:02:55.218Z,90
2018-07-17T14:03:55.256Z,90
2018-07-17T14:04:55.548Z,90
2018-07-17T14:05:55.072Z,85
2018-07-17T14:06:55.576Z,85
2018-07-17T14:07:55.676Z,45
2018-07-17T14:08:55.440Z,45
2018-07-17T14:09:55.219Z,45
2018-07-17T14:10:55.839Z,90
2018-07-17T14:11:55.563Z,40
2018-07-17T14:12:55.856Z,45
2018-07-17T14:13:55.632Z,60
2018-07-17T14:14:55.673Z,55
2018-07-17T14:15:55.445Z,85
2018-07-17T14:16:56.019Z,85
2018-07-17T14:17:55.789Z,85
2018-07-17T14:18:56.092Z,85
2018-07-17T14:19:55.863Z,80
2018-07-17T14:20:56.154Z,50
2018-07-17T14:21:56.198Z,80
2018-07-17T14:22:56.233Z,80
2018-07-17T14:23:56.483Z,80
2018-07-17T14:24:56.312Z,80
2018-07-17T14:25:56.090Z,75
2018-07-17T14:26:56.128Z,75
2018-07-17T14:27:56.422Z,75
2018-07-17T14:28:56.465Z,75
2018-07-17T14:29:56.501Z,75
2018-07-17T14:30:56.536Z,75
2018-07-17T14:31:56.370Z,45